Terminal Aerodrome Forecast
Issued by NWS Binghamton, NY

Home | Current Version | Previous Version | Text Only | Print | Product List | Glossary On
Versions: 1 2 3 4 5 6 7 8 9 10 11 12 13 14 15 16 17 18 19 20 21 22 23 24 25 26 27 28 29 30
000
FTUS41 KBGM 160500
TAFBGM
TAF
KBGM 160528Z 1606/1706 32012G22KT P6SM -SHSN SCT025 BKN040
      TEMPO 1606/1610 BKN025
     FM161000 33012G18KT P6SM BKN035
     FM161600 33014KT P6SM SCT035
     FM162200 VRB04KT P6SM SKC=

USA.gov is the U.S. government's official web portal to all federal, state and local government web resources and services.